Historyczne dane pomiarowe

Dodano dane terminowe – wersja testowa.

Dane z okresu 1951-2019

Wersja bazy: 1.34 [2019-03-16, lista zmian], aktualizacja planowana na 2019-04-15

Dane meteo z obszaru Polski uzyskane na podstawie danych udostępnionych przez Instytut Meteorologii i Gospodarki Wodnej – Państwowy Instytut Badawczy.

 

Wybierz Datę:    

       

TemperaturaWilgotnośćWiatrCiśnienieOpadyŚniegCzas trwania zjawisk
 Stacja t tx tn tng RH VA  wxwx mslp ppp RRR   cm mm wxwxwxwxwxwxwx
1977-10-10 12.9 16.0 10.2- 88.0- 1.3 9.0---- 0.5------------
1977-10-09 13.5 17.3 11.3- 90.0- 0.0 9.3---- 0.0------------
1977-10-08 11.2 11.9 10.3- 99.8- 8.0 4.3---- 0.0------------
1977-10-07 11.4 11.9 11.1- 97.8- 8.0 5.7---- 0.5------------
1977-10-06 10.0 12.3 7.2- 93.5- 7.3 2.3---- 5.4------------
1977-10-05 10.4 13.4 7.7- 90.5- 6.0 4.3---- 0.0------------
1977-10-04 7.0 9.8 5.2- 91.3- 7.3 3.7---- 3.5------------
1977-10-03 7.0 9.2 5.2- 76.5- 3.0 3.0---- 7.4------------
1977-10-02 7.5 9.7 5.5- 86.0- 6.3 12.3---- 4.7------------
1977-10-01 10.3 12.7 7.5- 82.3- 7.3 17.0---- 20.0------------
1977-09-30 11.6 13.4 9.6- 87.8- 6.3 11.0---- 3.6------------
1977-09-29 10.4 14.5 6.2- 71.8- 8.0 10.0---- 1.6------------
1977-09-28 7.0 11.5 3.8- 59.5- 2.0 6.0---- 0.1------------
1977-09-27 6.6 14.4 2.2- 67.5- 4.3 2.0---- 0.0------------
1977-09-26 7.4 10.4 4.5- 82.8- 4.7 1.3---- 0.0------------
1977-09-25 7.1 11.1 3.1- 79.5- 3.7 3.0---- 0.0------------
1977-09-24 8.1 9.7 6.6- 80.5- 8.0 2.0---- 0.3------------
1977-09-23 10.7 13.4 9.2- 77.0- 4.0 4.3---- 2.2------------
1977-09-22 11.9 13.8 10.6- 86.8- 7.0 5.0---- 0.0------------
1977-09-21 11.4 13.6 9.4- 86.3- 6.3 1.0---- 0.2------------
1977-09-20 9.9 14.7 6.5- 91.5- 5.7 1.3---- 0.0------------
1977-09-19 8.2 14.3 3.5- 77.0- 4.0 2.7---- 0.0------------
1977-09-18 7.8 11.9 2.7- 75.0- 2.7 2.3---- 0.0------------
1977-09-17 9.4 11.8 7.7- 70.5- 3.7 7.7---- 0.0------------
1977-09-16 9.1 10.4 6.8- 69.0- 6.7 8.3---- 3.4------------
1977-09-15 10.6 14.3 7.8- 65.5- 6.7 15.3---- 11.0------------
1977-09-14 10.4 13.1 4.2- 80.0- 6.0 10.3---- 7.9------------
1977-09-13 11.5 13.2 8.9- 51.8- 2.3 8.3---- 0.0------------
1977-09-12 12.6 17.6 10.3- 89.0- 7.0 15.3---- 4.9------------
1977-09-11 12.0 15.7 7.9- 82.3- 4.3 7.7---- 3.6------------
1977-09-10 9.4 13.2 7.4- 77.3- 6.3 10.0---- 0.8------------
1977-09-09 11.7 14.6 9.7- 75.8- 6.0 3.3---- 3.8------------
1977-09-08 12.1 15.5 10.0- 73.3- 3.3 4.7---- 1.6------------
1977-09-07 15.9 18.8 12.5- 70.0- 5.7 7.7---- 0.0------------
1977-09-06 15.7 19.6 13.7- 84.3- 6.3 3.3---- 0.0------------
1977-09-05 13.8 18.5 8.3- 81.0- 3.0 1.7---- 0.0------------
1977-09-04 15.8 17.4 14.3- 87.0- 4.3 3.0---- 0.0------------
1977-09-03 17.1 22.1 13.7- 91.3- 6.0 1.3---- 8.7------------
1977-09-02 16.8 20.5 11.6- 93.8- 2.0 1.3---- 0.0------------
1977-09-01 17.4 20.0 15.8- 90.0- 4.0 1.7---- 0.0------------
1977-08-31 19.5 25.8 15.7- 79.0- 1.7 2.7---- 0.0------------
1977-08-30 15.0 18.6 10.5- 81.8- 0.7 2.7---- 0.0------------
1977-08-29 14.2 18.6 11.3- 81.0- 1.3 3.3---- 0.0------------
1977-08-28 14.8 17.8 12.8- 89.3- 3.0 3.7---- 0.0------------
1977-08-27 16.2 20.5 13.1- 77.5- 7.0 3.7---- 0.1------------
1977-08-26 17.1 23.2 12.8- 63.8- 6.0 5.0---- 0.0------------
1977-08-25 14.6 17.9 11.1- 69.5- 1.3 2.3---- 0.0------------
1977-08-24 12.0 15.9 8.0- 85.8- 1.3 2.0---- 0.0------------
1977-08-23 13.7 16.8 11.5- 72.0- 0.3 5.7---- 0.0------------
1977-08-22 12.7 15.7 10.3- 79.5- 1.3 8.0---- 0.0------------
1977-08-21 13.3 16.6 10.0- 72.0- 0.3 4.3---- 0.0------------
1977-08-20 13.1 16.9 10.3- 70.5- 2.0 3.7---- 0.0------------
1977-08-19 13.7 15.6 12.2- 83.3- 3.7 6.3---- 0.0------------
1977-08-18 14.3 17.3 11.3- 82.8- 1.7 1.7---- 0.0------------
1977-08-17 12.7 17.1 9.0- 85.3- 1.7 1.3---- 0.0------------
1977-08-16 14.0 16.2 12.1- 73.5- 1.3 3.7---- 0.0------------
1977-08-15 14.3 16.2 13.3- 78.0- 4.0 11.0---- 0.0------------
1977-08-14 15.7 17.7 15.1- 93.0- 7.0 5.7---- 0.0------------
1977-08-13 17.0 19.6 16.1- 95.3- 6.7 2.7---- 0.0------------
1977-08-12 16.8 18.5 16.2- 95.8- 7.0 3.0---- 0.2------------
2573.4 ms

 

Źródłem pochodzenia danych jest Instytut Meteorologii i Gospodarki Wodnej – Państwowy Instytut Badawczy. Dane Instytutu Meteorologii i Gospodarki Wodnej – Państwowego Instytutu Badawczego zostały przetworzone.

Dane źródłowe można odnaleźć na stronie https://dane.imgw.pl